createdAt,value
2023-03-25T00:00:16.504Z,8.82
2023-03-25T00:02:45.549Z,8.84
2023-03-25T00:05:14.765Z,8.88
2023-03-25T00:07:43.708Z,8.95
2023-03-25T00:10:12.381Z,8.92
2023-03-25T00:12:39.480Z,8.93
2023-03-25T00:15:09.053Z,8.88
2023-03-25T00:17:36.595Z,8.85
2023-03-25T00:20:09.562Z,8.84
2023-03-25T00:22:40.718Z,8.84
2023-03-25T00:25:17.430Z,8.83
2023-03-25T00:27:46.853Z,8.86
2023-03-25T00:30:19.074Z,8.84
2023-03-25T00:32:49.598Z,8.71
2023-03-25T00:35:19.129Z,8.62
2023-03-25T00:37:48.013Z,8.69
2023-03-25T00:40:14.561Z,8.70
2023-03-25T00:42:44.703Z,8.68
2023-03-25T00:45:12.471Z,8.72
2023-03-25T00:47:39.021Z,8.71
2023-03-25T00:50:06.449Z,8.70
2023-03-25T00:52:32.979Z,8.74
2023-03-25T00:54:59.494Z,8.71
2023-03-25T00:57:26.043Z,8.60
2023-03-25T00:59:52.514Z,8.58
2023-03-25T01:02:21.289Z,8.50
2023-03-25T01:04:49.597Z,8.50
2023-03-25T01:07:20.292Z,8.50
2023-03-25T01:09:48.666Z,8.45
2023-03-25T01:12:16.933Z,8.41
2023-03-25T01:14:43.496Z,8.24
2023-03-25T01:17:11.092Z,8.22
2023-03-25T01:19:37.590Z,8.23
2023-03-25T01:22:05.263Z,8.14
2023-03-25T01:24:32.156Z,8.13
2023-03-25T01:26:58.750Z,8.11
2023-03-25T01:29:25.286Z,8.00
2023-03-25T01:31:53.519Z,8.01
2023-03-25T01:34:20.342Z,8.03
2023-03-25T01:36:47.068Z,8.10
2023-03-25T01:39:17.089Z,8.20
2023-03-25T01:41:50.174Z,8.18
2023-03-25T01:44:20.502Z,8.13
2023-03-25T01:46:49.108Z,8.21
2023-03-25T01:49:38.748Z,8.11
2023-03-25T01:52:21.236Z,7.99
2023-03-25T01:54:52.035Z,7.97
2023-03-25T01:57:23.120Z,7.93
2023-03-25T01:59:53.611Z,8.01
2023-03-25T02:02:22.198Z,7.96
2023-03-25T02:05:07.451Z,7.93
2023-03-25T02:07:39.167Z,8.02
2023-03-25T02:10:09.515Z,8.03
2023-03-25T02:12:36.298Z,8.13
2023-03-25T02:15:07.457Z,8.18
2023-03-25T02:17:48.458Z,8.18
2023-03-25T02:20:58.103Z,8.09
2023-03-25T02:23:28.394Z,8.09
2023-03-25T02:26:24.053Z,8.11
2023-03-25T02:29:02.471Z,8.01
2023-03-25T02:32:23.681Z,7.93
2023-03-25T02:35:29.975Z,8.03
2023-03-25T02:38:17.149Z,8.01
2023-03-25T02:40:52.103Z,7.75
2023-03-25T02:43:40.389Z,7.85
2023-03-25T02:46:15.819Z,7.95
2023-03-25T02:49:08.614Z,7.96
2023-03-25T02:51:46.053Z,7.98
2023-03-25T02:54:16.875Z,8.00
2023-03-25T02:56:48.358Z,8.08
2023-03-25T02:59:16.917Z,8.04
2023-03-25T03:01:44.762Z,8.10
2023-03-25T03:04:11.315Z,8.13
2023-03-25T03:06:43.497Z,8.13
2023-03-25T03:09:52.019Z,8.12
2023-03-25T03:13:04.790Z,8.03
2023-03-25T03:15:54.979Z,8.08
2023-03-25T03:19:02.352Z,8.10
2023-03-25T03:22:03.741Z,8.06
2023-03-25T03:24:40.476Z,8.03
2023-03-25T03:27:34.855Z,8.04
2023-03-25T03:30:27.192Z,8.08
2023-03-25T03:33:09.991Z,8.14
2023-03-25T03:35:50.308Z,8.07
2023-03-25T03:38:23.145Z,8.09
2023-03-25T03:40:59.637Z,8.09
2023-03-25T03:43:37.601Z,8.04
2023-03-25T03:46:13.492Z,7.99
2023-03-25T03:48:55.174Z,8.00
2023-03-25T03:51:30.672Z,7.98
2023-03-25T03:54:05.708Z,8.11
2023-03-25T03:56:46.481Z,8.01
2023-03-25T03:59:25.322Z,7.83
2023-03-25T04:01:59.667Z,7.88
2023-03-25T04:04:26.955Z,7.95
2023-03-25T04:07:19.463Z,7.99
2023-03-25T04:10:03.665Z,7.83
2023-03-25T04:12:37.558Z,7.82
2023-03-25T04:15:06.833Z,7.72
2023-03-25T04:17:33.514Z,7.63
2023-03-25T04:20:01.548Z,7.79
2023-03-25T04:22:28.091Z,7.98
2023-03-25T04:24:56.079Z,8.10
2023-03-25T04:27:29.800Z,8.08
2023-03-25T04:29:57.610Z,8.12
2023-03-25T04:32:27.678Z,8.15
2023-03-25T04:34:57.910Z,8.18
2023-03-25T04:37:28.701Z,8.11
2023-03-25T04:39:56.097Z,8.12
2023-03-25T04:42:25.774Z,8.15
2023-03-25T04:44:52.953Z,8.19
2023-03-25T04:47:24.543Z,8.17
2023-03-25T04:49:51.430Z,8.11
2023-03-25T04:52:17.923Z,8.11
2023-03-25T04:54:47.167Z,8.09
2023-03-25T04:57:13.632Z,8.11
2023-03-25T04:59:40.151Z,8.16
2023-03-25T05:02:07.677Z,8.06
2023-03-25T05:04:34.477Z,8.05
2023-03-25T05:07:01.092Z,8.09
2023-03-25T05:09:29.540Z,8.14
2023-03-25T05:11:56.330Z,8.17
2023-03-25T05:14:22.864Z,8.19
2023-03-25T05:16:50.097Z,8.11
2023-03-25T05:19:18.854Z,8.10
2023-03-25T05:21:45.581Z,8.09
2023-03-25T05:24:13.712Z,8.11
2023-03-25T05:26:42.372Z,8.17
2023-03-25T05:29:15.219Z,8.01
2023-03-25T05:31:45.325Z,8.02
2023-03-25T05:34:14.422Z,8.10
2023-03-25T05:36:41.725Z,8.16
2023-03-25T05:39:08.728Z,8.22
2023-03-25T05:41:39.091Z,8.23
2023-03-25T05:44:07.953Z,8.15
2023-03-25T05:46:34.817Z,8.16
2023-03-25T05:49:01.835Z,8.19
2023-03-25T05:51:38.496Z,8.18
2023-03-25T05:54:10.781Z,7.83
2023-03-25T05:56:38.254Z,8.01
2023-03-25T05:59:04.836Z,8.15
2023-03-25T06:01:34.127Z,8.15
2023-03-25T06:04:04.058Z,8.12
2023-03-25T06:06:34.017Z,8.15
2023-03-25T06:09:02.260Z,8.20
2023-03-25T06:11:29.272Z,8.13
2023-03-25T06:13:56.111Z,8.15
2023-03-25T06:16:29.849Z,8.15
2023-03-25T06:18:59.688Z,8.15
2023-03-25T06:21:30.343Z,8.04
2023-03-25T06:23:59.555Z,8.02
2023-03-25T06:26:26.609Z,8.11
2023-03-25T06:28:53.439Z,7.98
2023-03-25T06:31:33.101Z,7.96
2023-03-25T06:33:59.635Z,7.99
2023-03-25T06:36:26.139Z,8.05
2023-03-25T06:38:54.041Z,8.08
2023-03-25T06:41:21.936Z,8.21
2023-03-25T06:43:49.258Z,8.26
2023-03-25T06:46:19.616Z,8.24
2023-03-25T06:48:46.077Z,8.25
2023-03-25T06:51:12.681Z,8.24
2023-03-25T06:53:39.204Z,8.27
2023-03-25T06:56:06.329Z,8.40
2023-03-25T06:58:35.152Z,8.52
2023-03-25T07:01:07.047Z,8.60
2023-03-25T07:03:36.634Z,8.64
2023-03-25T07:06:05.007Z,8.71
2023-03-25T07:08:32.261Z,8.77
2023-03-25T07:11:04.333Z,8.75
2023-03-25T07:13:31.292Z,8.80
2023-03-25T07:15:58.667Z,8.88
2023-03-25T07:18:25.890Z,8.93
2023-03-25T07:20:52.934Z,8.96
2023-03-25T07:23:19.452Z,9.00
2023-03-25T07:25:46.226Z,9.00
2023-03-25T07:28:13.128Z,8.92
2023-03-25T07:30:39.858Z,8.83
2023-03-25T07:33:06.555Z,8.91
2023-03-25T07:35:33.007Z,8.99
2023-03-25T07:37:59.664Z,9.14
2023-03-25T07:40:26.240Z,9.27
2023-03-25T07:42:52.783Z,9.38
2023-03-25T07:45:19.330Z,9.41
2023-03-25T07:47:50.251Z,9.41
2023-03-25T07:50:25.082Z,9.25
2023-03-25T07:52:53.361Z,9.17
2023-03-25T07:55:20.135Z,9.11
2023-03-25T07:57:47.310Z,9.07
2023-03-25T08:00:14.313Z,8.96
2023-03-25T08:02:41.706Z,8.86
2023-03-25T08:05:09.342Z,8.61
2023-03-25T08:07:36.000Z,8.36
2023-03-25T08:10:02.622Z,8.12
2023-03-25T08:12:29.149Z,8.13
2023-03-25T08:14:57.935Z,8.15
2023-03-25T08:17:24.530Z,7.75
2023-03-25T08:19:51.043Z,7.97
2023-03-25T08:22:17.562Z,7.74
2023-03-25T08:24:44.013Z,7.57
2023-03-25T08:27:15.587Z,6.91
2023-03-25T08:29:44.466Z,6.46
2023-03-25T08:32:11.256Z,6.40
2023-03-25T08:34:39.945Z,6.46
2023-03-25T08:37:09.924Z,6.33
2023-03-25T08:39:39.520Z,6.50
2023-03-25T08:42:08.085Z,6.53
2023-03-25T08:44:35.648Z,6.73
2023-03-25T08:47:02.678Z,6.99
2023-03-25T08:49:29.225Z,7.24
2023-03-25T08:51:57.896Z,7.49
2023-03-25T08:54:25.998Z,7.54
2023-03-25T08:56:52.774Z,7.65
2023-03-25T08:59:19.930Z,7.82
2023-03-25T09:01:46.674Z,7.88
2023-03-25T09:04:13.482Z,7.91
2023-03-25T09:06:47.490Z,8.17
2023-03-25T09:09:16.950Z,8.41
2023-03-25T09:11:44.086Z,8.50
2023-03-25T09:14:11.025Z,8.67
2023-03-25T09:16:37.614Z,8.66
2023-03-25T09:19:04.347Z,8.70
2023-03-25T09:21:31.035Z,8.65
2023-03-25T09:23:57.584Z,8.32
2023-03-25T09:26:26.074Z,8.45
2023-03-25T09:28:55.339Z,8.41
2023-03-25T09:31:23.523Z,8.47
2023-03-25T09:33:50.348Z,8.49
2023-03-25T09:36:16.899Z,8.74
2023-03-25T09:38:43.451Z,8.65
2023-03-25T09:41:46.387Z,8.60
2023-03-25T09:44:40.581Z,8.59
2023-03-25T09:47:14.953Z,8.43
2023-03-25T09:49:53.414Z,8.52
2023-03-25T09:52:34.922Z,8.66
2023-03-25T09:55:10.243Z,8.99
2023-03-25T09:57:49.102Z,9.07
2023-03-25T10:00:24.581Z,9.13
2023-03-25T10:03:55.365Z,9.14
2023-03-25T10:06:26.109Z,9.09
2023-03-25T10:09:23.182Z,9.26
2023-03-25T10:12:07.677Z,9.28
2023-03-25T10:15:26.163Z,9.46
2023-03-25T10:18:23.203Z,9.63
2023-03-25T10:21:08.520Z,9.65
2023-03-25T10:23:58.384Z,9.65
2023-03-25T10:26:40.759Z,9.58
2023-03-25T10:29:16.148Z,9.59
2023-03-25T10:31:53.690Z,9.63
2023-03-25T10:34:34.977Z,9.79
2023-03-25T10:37:10.254Z,9.82
2023-03-25T10:39:39.983Z,9.96
2023-03-25T10:42:31.508Z,9.98
2023-03-25T10:44:58.146Z,10.17
2023-03-25T10:47:31.045Z,10.19
2023-03-25T10:50:00.330Z,10.33
2023-03-25T10:52:27.079Z,10.48
2023-03-25T10:54:56.344Z,10.68
2023-03-25T10:57:29.469Z,10.86
2023-03-25T11:00:04.763Z,10.92
2023-03-25T11:02:32.215Z,10.96
2023-03-25T11:05:09.652Z,10.66
2023-03-25T11:07:41.745Z,10.76
2023-03-25T11:10:25.550Z,10.88
2023-03-25T11:12:54.621Z,10.96
2023-03-25T11:15:25.872Z,11.02
2023-03-25T11:18:08.267Z,10.61
2023-03-25T11:20:45.744Z,10.62
2023-03-25T11:23:30.423Z,10.85
2023-03-25T11:26:21.559Z,11.14
2023-03-25T11:28:56.051Z,11.10
2023-03-25T11:31:26.503Z,11.42
2023-03-25T11:34:11.873Z,11.41
2023-03-25T11:36:53.041Z,11.30
2023-03-25T11:39:30.081Z,11.16
2023-03-25T11:41:57.700Z,11.14
2023-03-25T11:44:33.152Z,11.03
2023-03-25T11:47:08.921Z,11.10
2023-03-25T11:49:38.941Z,11.16
2023-03-25T11:52:21.839Z,10.94
2023-03-25T11:54:52.772Z,10.85
2023-03-25T11:57:38.742Z,10.72
2023-03-25T12:00:28.262Z,10.59
2023-03-25T12:03:13.532Z,10.85
2023-03-25T12:05:42.090Z,10.94
2023-03-25T12:08:17.807Z,10.89
2023-03-25T12:10:57.659Z,10.67
2023-03-25T12:13:50.385Z,10.73
2023-03-25T12:16:39.592Z,10.72
2023-03-25T12:19:12.155Z,10.88
2023-03-25T12:22:02.761Z,10.96
2023-03-25T12:25:11.408Z,10.82
2023-03-25T12:27:56.361Z,10.47
2023-03-25T12:30:33.527Z,10.69
2023-03-25T12:33:56.292Z,10.78
2023-03-25T12:36:51.393Z,10.71
2023-03-25T12:39:59.104Z,10.44
2023-03-25T12:43:06.239Z,10.62
2023-03-25T12:45:39.525Z,10.87
2023-03-25T12:48:46.231Z,11.19
2023-03-25T12:51:42.340Z,11.32
2023-03-25T12:54:26.958Z,11.37
2023-03-25T12:57:18.354Z,11.45
2023-03-25T13:00:07.996Z,10.91
2023-03-25T13:02:53.111Z,9.93
2023-03-25T13:05:54.272Z,9.63
2023-03-25T13:08:36.121Z,9.77
2023-03-25T13:11:22.442Z,10.02
2023-03-25T13:13:55.945Z,10.47
2023-03-25T13:16:29.863Z,10.78
2023-03-25T13:19:14.032Z,10.94
2023-03-25T13:21:46.405Z,11.05
2023-03-25T13:24:21.352Z,11.29
2023-03-25T13:26:52.722Z,11.35
2023-03-25T13:29:31.641Z,11.59
2023-03-25T13:32:06.922Z,11.72
2023-03-25T13:34:55.904Z,11.70
2023-03-25T13:37:49.372Z,11.57
2023-03-25T13:40:35.673Z,11.53
2023-03-25T13:43:36.353Z,11.65
2023-03-25T13:46:13.024Z,11.76
2023-03-25T13:49:02.060Z,11.73
2023-03-25T13:51:29.257Z,11.65
2023-03-25T13:54:09.777Z,11.74
2023-03-25T13:57:09.076Z,11.76
2023-03-25T14:00:25.148Z,11.51
2023-03-25T14:03:34.107Z,11.66
2023-03-25T14:06:15.677Z,11.46
2023-03-25T14:09:17.650Z,11.39
2023-03-25T14:11:54.256Z,11.59
2023-03-25T14:14:23.643Z,11.07
2023-03-25T14:16:59.595Z,11.27
2023-03-25T14:19:34.903Z,11.26
2023-03-25T14:22:14.128Z,11.18
2023-03-25T14:24:41.662Z,11.05
2023-03-25T14:27:15.299Z,11.20
2023-03-25T14:29:47.201Z,11.39
2023-03-25T14:32:16.665Z,11.26
2023-03-25T14:34:49.906Z,11.49
2023-03-25T14:37:24.555Z,11.33
2023-03-25T14:39:51.833Z,11.32
2023-03-25T14:42:21.351Z,10.97
2023-03-25T14:44:54.454Z,10.48
2023-03-25T14:47:31.965Z,9.54
2023-03-25T14:50:23.335Z,9.52
2023-03-25T14:52:59.996Z,9.55
2023-03-25T14:55:28.708Z,9.29
2023-03-25T14:58:24.705Z,9.41
2023-03-25T15:01:00.108Z,9.47
2023-03-25T15:03:44.326Z,9.28
2023-03-25T15:06:28.684Z,9.24
2023-03-25T15:08:59.784Z,9.35
2023-03-25T15:11:37.275Z,9.45
2023-03-25T15:14:10.688Z,9.42
2023-03-25T15:16:56.923Z,9.47
2023-03-25T15:19:23.664Z,9.26
2023-03-25T15:22:00.280Z,9.20
2023-03-25T15:24:34.442Z,9.02
2023-03-25T15:27:28.171Z,9.44
2023-03-25T15:30:13.734Z,9.53
2023-03-25T15:33:07.249Z,9.62
2023-03-25T15:35:45.052Z,9.78
2023-03-25T15:38:39.194Z,9.60
2023-03-25T15:41:24.614Z,9.63
2023-03-25T15:44:29.281Z,9.66
2023-03-25T15:47:04.684Z,9.75
2023-03-25T15:50:11.613Z,9.71
2023-03-25T15:53:25.877Z,9.91
2023-03-25T15:56:09.139Z,10.06
2023-03-25T15:58:48.431Z,10.11
2023-03-25T16:01:26.629Z,10.15
2023-03-25T16:04:06.724Z,10.21
2023-03-25T16:06:41.894Z,10.28
2023-03-25T16:09:19.304Z,10.13
2023-03-25T16:11:46.623Z,10.32
2023-03-25T16:14:21.955Z,10.38
2023-03-25T16:16:54.654Z,10.39
2023-03-25T16:19:41.550Z,10.35
2023-03-25T16:22:29.341Z,10.29
2023-03-25T16:25:01.429Z,10.31
2023-03-25T16:27:44.646Z,10.24
2023-03-25T16:30:37.055Z,10.19
2023-03-25T16:33:10.418Z,10.18
2023-03-25T16:35:41.398Z,10.19
2023-03-25T16:38:15.409Z,10.13
2023-03-25T16:40:43.884Z,9.37
2023-03-25T16:43:21.867Z,8.76
2023-03-25T16:45:51.663Z,8.59
2023-03-25T16:48:34.490Z,8.08
2023-03-25T16:51:13.591Z,7.98
2023-03-25T16:53:42.544Z,8.04
2023-03-25T16:56:09.263Z,7.92
2023-03-25T16:58:58.095Z,7.93
2023-03-25T17:01:25.928Z,8.13
2023-03-25T17:04:05.245Z,8.29
2023-03-25T17:06:39.125Z,8.42
2023-03-25T17:09:16.005Z,8.44
2023-03-25T17:11:45.599Z,8.49
2023-03-25T17:14:19.948Z,8.58
2023-03-25T17:16:50.371Z,8.70
2023-03-25T17:19:19.326Z,8.83
2023-03-25T17:22:17.621Z,8.85
2023-03-25T17:24:57.290Z,8.54
2023-03-25T17:27:40.274Z,8.61
2023-03-25T17:30:40.513Z,8.61
2023-03-25T17:33:35.424Z,8.55
2023-03-25T17:36:08.414Z,8.68
2023-03-25T17:38:41.250Z,8.77
2023-03-25T17:41:11.464Z,8.83
2023-03-25T17:43:48.115Z,8.86
2023-03-25T17:46:23.232Z,8.56
2023-03-25T17:48:53.205Z,8.84
2023-03-25T17:51:21.475Z,8.92
2023-03-25T17:53:49.288Z,8.89
2023-03-25T17:56:24.934Z,8.49
2023-03-25T17:59:07.945Z,8.15
2023-03-25T18:01:35.811Z,7.88
2023-03-25T18:04:02.673Z,8.02
2023-03-25T18:06:29.113Z,8.07
2023-03-25T18:08:55.713Z,8.14
2023-03-25T18:11:22.360Z,8.26
2023-03-25T18:13:49.029Z,8.26
2023-03-25T18:16:21.202Z,8.36
2023-03-25T18:18:48.724Z,8.42
2023-03-25T18:21:17.246Z,8.51
2023-03-25T18:23:47.421Z,8.59
2023-03-25T18:26:18.052Z,8.54
2023-03-25T18:28:46.210Z,8.35
2023-03-25T18:31:17.156Z,8.21
2023-03-25T18:33:48.322Z,8.24
2023-03-25T18:36:15.677Z,8.19
2023-03-25T18:38:46.056Z,8.19
2023-03-25T18:41:14.387Z,8.36
2023-03-25T18:43:42.247Z,8.41
2023-03-25T18:46:14.197Z,8.26
2023-03-25T18:48:41.073Z,8.42
2023-03-25T18:51:14.966Z,8.42
2023-03-25T18:53:41.875Z,8.18
2023-03-25T18:56:09.598Z,7.67
2023-03-25T18:58:36.728Z,6.94
2023-03-25T19:01:07.498Z,6.73
2023-03-25T19:03:40.026Z,6.60
2023-03-25T19:06:12.873Z,6.68
2023-03-25T19:08:43.224Z,6.90
2023-03-25T19:11:19.693Z,7.12
2023-03-25T19:13:48.516Z,7.20
2023-03-25T19:16:15.084Z,7.26
2023-03-25T19:18:41.627Z,7.37
2023-03-25T19:21:08.827Z,7.47
2023-03-25T19:23:36.283Z,7.42
2023-03-25T19:26:04.203Z,7.51
2023-03-25T19:28:30.663Z,7.57
2023-03-25T19:31:01.197Z,7.55
2023-03-25T19:33:30.785Z,7.23
2023-03-25T19:36:01.125Z,6.89
2023-03-25T19:38:28.597Z,6.86
2023-03-25T19:41:06.613Z,6.67
2023-03-25T19:43:33.504Z,6.75
2023-03-25T19:46:01.000Z,6.85
2023-03-25T19:48:29.815Z,6.80
2023-03-25T19:50:57.686Z,6.82
2023-03-25T19:53:27.125Z,6.88
2023-03-25T19:55:55.058Z,6.84
2023-03-25T19:58:22.851Z,6.86
2023-03-25T20:00:50.431Z,6.89
2023-03-25T20:03:17.060Z,6.90
2023-03-25T20:05:43.638Z,6.96
2023-03-25T20:08:10.616Z,6.91
2023-03-25T20:10:39.196Z,6.88
2023-03-25T20:13:06.124Z,6.96
2023-03-25T20:15:33.261Z,7.01
2023-03-25T20:18:00.320Z,7.07
2023-03-25T20:20:27.105Z,7.13
2023-03-25T20:22:54.114Z,7.21
2023-03-25T20:25:21.180Z,7.24
2023-03-25T20:27:47.990Z,7.20
2023-03-25T20:30:18.458Z,7.13
2023-03-25T20:32:48.194Z,7.14
2023-03-25T20:35:17.483Z,7.10
2023-03-25T20:37:46.982Z,7.10
2023-03-25T20:40:17.452Z,7.09
2023-03-25T20:42:48.667Z,7.00
2023-03-25T20:45:17.757Z,7.00
2023-03-25T20:47:45.343Z,7.05
2023-03-25T20:50:16.363Z,7.13
2023-03-25T20:52:43.695Z,7.14
2023-03-25T20:55:11.318Z,7.16
2023-03-25T20:57:39.124Z,7.10
2023-03-25T21:00:07.851Z,7.06
2023-03-25T21:02:34.768Z,6.98
2023-03-25T21:05:03.449Z,6.96
2023-03-25T21:07:32.023Z,6.98
2023-03-25T21:09:59.492Z,7.01
2023-03-25T21:12:36.271Z,7.02
2023-03-25T21:15:04.622Z,7.12
2023-03-25T21:17:31.268Z,7.24
2023-03-25T21:19:58.089Z,7.22
2023-03-25T21:22:24.769Z,7.24
2023-03-25T21:24:51.273Z,7.26
2023-03-25T21:27:17.835Z,7.30
2023-03-25T21:29:46.073Z,7.33
2023-03-25T21:32:13.843Z,7.35
2023-03-25T21:34:40.629Z,7.32
2023-03-25T21:37:07.144Z,7.29
2023-03-25T21:39:33.683Z,7.34
2023-03-25T21:42:00.380Z,7.40
2023-03-25T21:44:36.963Z,7.45
2023-03-25T21:47:08.328Z,7.52
2023-03-25T21:49:34.844Z,7.52
2023-03-25T21:52:01.715Z,7.54
2023-03-25T21:54:28.674Z,7.50
2023-03-25T21:56:55.537Z,7.52
2023-03-25T21:59:22.732Z,7.59
2023-03-25T22:01:49.381Z,7.54
2023-03-25T22:04:17.777Z,7.54
2023-03-25T22:06:44.333Z,7.56
2023-03-25T22:09:10.948Z,7.59
2023-03-25T22:11:37.715Z,7.49
2023-03-25T22:14:05.542Z,7.49
2023-03-25T22:16:32.775Z,7.48
2023-03-25T22:18:59.376Z,7.40
2023-03-25T22:21:30.697Z,7.39
2023-03-25T22:24:01.249Z,7.36
2023-03-25T22:26:30.529Z,7.44
2023-03-25T22:29:03.397Z,7.50
2023-03-25T22:31:33.113Z,7.55
2023-03-25T22:34:03.720Z,7.55
2023-03-25T22:36:33.201Z,7.55
2023-03-25T22:39:01.235Z,7.57
2023-03-25T22:41:28.050Z,7.60
2023-03-25T22:43:55.825Z,7.61
2023-03-25T22:46:23.069Z,7.61
2023-03-25T22:48:50.305Z,7.60
2023-03-25T22:51:19.604Z,7.63
2023-03-25T22:53:46.620Z,7.70
2023-03-25T22:56:13.850Z,7.68
2023-03-25T22:58:41.127Z,7.75
2023-03-25T23:01:25.043Z,7.59
2023-03-25T23:03:53.891Z,7.63
2023-03-25T23:06:22.246Z,7.68
2023-03-25T23:08:50.124Z,7.62
2023-03-25T23:11:21.341Z,7.65
2023-03-25T23:13:55.605Z,7.49
2023-03-25T23:16:26.191Z,7.59
2023-03-25T23:18:53.758Z,7.74
2023-03-25T23:21:25.378Z,7.82
2023-03-25T23:23:56.962Z,7.88
2023-03-25T23:26:40.325Z,7.85
2023-03-25T23:29:10.298Z,7.87
2023-03-25T23:31:41.026Z,7.91
2023-03-25T23:34:14.507Z,8.00
2023-03-25T23:36:42.057Z,7.94
2023-03-25T23:39:16.027Z,7.94
2023-03-25T23:41:43.198Z,7.97
2023-03-25T23:44:10.615Z,8.04
2023-03-25T23:46:37.455Z,8.01
2023-03-25T23:49:04.000Z,8.05
2023-03-25T23:51:35.110Z,8.08
2023-03-25T23:54:02.228Z,8.11
2023-03-25T23:56:30.002Z,8.09
2023-03-25T23:58:59.183Z,8.09
